Monday, January 21, 2019, 5:09 PM EST
Back to Local

KGED, Georgetown Sussex Co Airport

Location: Georgetown, DE, United States Lat: 38.683
Local Time: 5:09 PM EST (22:09 GMT) Lon: -75.367
Time Zone: US/Eastern Elev: 52 ft

Show me the last for .
Show Decoded

2019-01-21 16:54 METAR KGED 212154Z AUTO 31010G19KT 10SM CLR M05/M21 A3034 RMK AO2 SLP275
                 T10501211 =
2019-01-21 15:54 METAR KGED 212054Z AUTO 31011G24KT 10SM CLR M05/M21 A3031 RMK AO2 PK WND
                 32027/2041 SLP265 T10501211 53024 =
2019-01-21 14:54 METAR KGED 211954Z AUTO 31014G26KT 10SM CLR M05/M22 A3028 RMK AO2 PK WND
                 33030/1908 SLP252 T10501217 =
2019-01-21 13:54 METAR KGED 211854Z AUTO 31012G25KT 10SM CLR M05/M21 A3026 RMK AO2 PK WND
                 31027/1809 SLP246 T10501206 =
2019-01-21 12:54 METAR KGED 211754Z AUTO 32013G27KT 10SM CLR M06/M21 A3024 RMK AO2 PK WND
                 33032/1716 SNB26E29 SLP241 P0000 60000 T10561211 11056 21089 50010 =
2019-01-21 11:54 METAR KGED 211654Z AUTO 32013G30KT 10SM CLR M07/M22 A3024 RMK AO2 PK WND
                 32031/1617 SNB50E52 SLP242 P0000 T10671217 =
2019-01-21 10:54 METAR KGED 211554Z AUTO 31013G25KT 10SM CLR M07/M22 A3023 RMK AO2 PK WND
                 30033/1524 SNB19E24 SLP237 P0000 T10671217 =
2019-01-21 09:54 METAR KGED 211454Z AUTO 31013G20KT 10SM CLR M07/M21 A3021 RMK AO2 PK WND
                 29030/1431 SNE1357B15E38 SLP232 P0000 60000 T10721211 51032 =
2019-01-21 08:54 METAR KGED 211354Z AUTO 31013G30KT 9SM -SN CLR M08/M21 A3018 RMK AO2 PK WND
                 30035/1304 SNB38 SLP221 P0000 T10831211 =
2019-01-21 07:54 METAR KGED 211254Z AUTO 30016G28KT 10SM CLR M09/M21 A3015 RMK AO2 PK WND
                 28029/1229 SLP211 T10891211 =
2019-01-21 06:54 METAR KGED 211154Z AUTO 31013G27KT 10SM CLR M09/M21 A3012 RMK AO2 PK WND
                 30034/1138 SNB40E47 SLP199 P0000 60000 70021 T10891211 11061 21089 53030 =
2019-01-21 05:54 METAR KGED 211054Z AUTO 31014G22KT 10SM CLR M09/M21 A3009 RMK AO2 PK WND
                 29030/0957 SLP189 T10891211 =
2019-01-21 04:54 METAR KGED 210954Z AUTO 30016G32KT 10SM CLR M08/M21 A3006 RMK AO2 PK WND
                 30032/0954 SLP178 T10831211 =
2019-01-21 03:54 METAR KGED 210854Z AUTO 30015G23KT 10SM CLR M08/M21 A3003 RMK AO2 PK WND
                 28028/0837 SLP169 T10831206 51025 =
2019-01-21 02:54 METAR KGED 210754Z AUTO 30010G22KT 10SM CLR M07/M20 A3002 RMK AO2 PK WND
                 33029/0709 SLP165 T10721200 =
2019-01-21 01:54 METAR KGED 210654Z AUTO 30015G27KT 10SM CLR M07/M19 A3000 RMK AO2 PK WND
                 31027/0601 SLP159 T10721194 =
2019-01-21 00:54 METAR KGED 210554Z AUTO 31012G25KT 10SM CLR M06/M18 A2996 RMK AO2 PK WND
                 30028/0520 SLP144 T10611178 11006 21061 51040 =
2019-01-20 23:54 METAR KGED 210454Z AUTO 31015G29KT 10SM CLR M05/M17 A2992 RMK AO2 PK WND
                 32030/0400 SLP130 T10501167 401671050 =
2019-01-20 22:54 METAR KGED 210354Z AUTO 31013G25KT 280V350 10SM CLR M04/M16 A2989 RMK AO2 PK WND
                 31032/0317 SLP120 T10441161 =
2019-01-20 21:54 METAR KGED 210254Z AUTO 31013G23KT 10SM CLR M03/M14 A2984 RMK AO2 SLP103
                 T10331139 51044 =
2019-01-20 20:54 METAR KGED 210154Z AUTO 32012G21KT 10SM CLR M03/M14 A2979 RMK AO2 PK WND
                 32027/0128 SLP089 T10281139 =
2019-01-20 19:54 METAR KGED 210054Z AUTO 33016G30KT 10SM CLR M02/M12 A2975 RMK AO2 PK WND
                 31030/0049 SLP075 T10171122 =
2019-01-20 18:54 METAR KGED 202354Z AUTO 33011G27KT 280V010 10SM CLR M01/M10 A2971 RMK AO2 PK WND
                 31030/2334 SLP059 T10061100 10089 21006 51056 =
2019-01-20 17:54 METAR KGED 202254Z AUTO 32015G26KT 10SM CLR 01/M08 A2966 RMK AO2 PK WND
                 33029/2204 SLP042 T00061083 =

Support USWX by starting your Amazon purchase here.